sensor_id;sensor_type;location;lat;lon;timestamp;P1;durP1;ratioP1;P2;durP2;ratioP2
78670;SDS011;68277;52.724;6.516;2023-06-19T00:00:07;6.25;;;3.72;;
78670;SDS011;68277;52.724;6.516;2023-06-19T00:02:38;5.03;;;3.70;;
78670;SDS011;68277;52.724;6.516;2023-06-19T00:05:12;8.10;;;3.72;;
78670;SDS011;68277;52.724;6.516;2023-06-19T00:07:37;6.38;;;3.95;;
78670;SDS011;68277;52.724;6.516;2023-06-19T00:10:04;7.35;;;4.05;;
78670;SDS011;68277;52.724;6.516;2023-06-19T00:12:31;7.38;;;3.92;;
78670;SDS011;68277;52.724;6.516;2023-06-19T00:14:56;6.65;;;3.65;;
78670;SDS011;68277;52.724;6.516;2023-06-19T00:17:22;6.85;;;4.05;;
78670;SDS011;68277;52.724;6.516;2023-06-19T00:19:51;6.18;;;3.65;;
78670;SDS011;68277;52.724;6.516;2023-06-19T00:22:16;7.20;;;3.70;;
78670;SDS011;68277;52.724;6.516;2023-06-19T00:24:43;7.10;;;3.95;;
78670;SDS011;68277;52.724;6.516;2023-06-19T00:27:08;4.85;;;2.83;;
78670;SDS011;68277;52.724;6.516;2023-06-19T00:29:34;5.28;;;3.42;;
78670;SDS011;68277;52.724;6.516;2023-06-19T00:31:59;5.40;;;3.53;;
78670;SDS011;68277;52.724;6.516;2023-06-19T00:34:25;5.63;;;3.63;;
78670;SDS011;68277;52.724;6.516;2023-06-19T00:36:51;5.75;;;3.40;;
78670;SDS011;68277;52.724;6.516;2023-06-19T00:39:21;6.35;;;4.10;;
78670;SDS011;68277;52.724;6.516;2023-06-19T00:44:13;5.53;;;3.42;;
78670;SDS011;68277;52.724;6.516;2023-06-19T00:46:39;5.75;;;3.00;;
78670;SDS011;68277;52.724;6.516;2023-06-19T00:49:06;5.32;;;3.30;;
78670;SDS011;68277;52.724;6.516;2023-06-19T00:51:32;5.15;;;3.15;;
78670;SDS011;68277;52.724;6.516;2023-06-19T00:53:58;6.47;;;3.97;;
78670;SDS011;68277;52.724;6.516;2023-06-19T00:56:23;5.25;;;3.20;;
78670;SDS011;68277;52.724;6.516;2023-06-19T00:58:49;5.65;;;3.30;;
78670;SDS011;68277;52.724;6.516;2023-06-19T01:01:16;6.57;;;3.67;;
78670;SDS011;68277;52.724;6.516;2023-06-19T01:03:41;7.22;;;3.17;;
78670;SDS011;68277;52.724;6.516;2023-06-19T01:06:08;5.95;;;3.40;;
78670;SDS011;68277;52.724;6.516;2023-06-19T01:08:43;4.25;;;3.22;;
78670;SDS011;68277;52.724;6.516;2023-06-19T01:11:17;5.15;;;3.30;;
78670;SDS011;68277;52.724;6.516;2023-06-19T01:13:48;6.70;;;3.17;;
78670;SDS011;68277;52.724;6.516;2023-06-19T01:16:25;5.95;;;4.10;;
78670;SDS011;68277;52.724;6.516;2023-06-19T01:18:53;4.63;;;3.25;;
78670;SDS011;68277;52.724;6.516;2023-06-19T01:21:19;7.88;;;3.88;;
78670;SDS011;68277;52.724;6.516;2023-06-19T01:23:45;5.07;;;3.20;;
78670;SDS011;68277;52.724;6.516;2023-06-19T01:26:11;6.43;;;3.00;;
78670;SDS011;68277;52.724;6.516;2023-06-19T01:28:38;6.57;;;3.08;;
78670;SDS011;68277;52.724;6.516;2023-06-19T01:31:07;5.55;;;3.47;;
78670;SDS011;68277;52.724;6.516;2023-06-19T01:33:56;6.10;;;3.60;;
78670;SDS011;68277;52.724;6.516;2023-06-19T01:36:23;4.75;;;2.95;;
78670;SDS011;68277;52.724;6.516;2023-06-19T01:38:50;4.75;;;3.08;;
78670;SDS011;68277;52.724;6.516;2023-06-19T01:41:19;5.70;;;3.08;;
78670;SDS011;68277;52.724;6.516;2023-06-19T01:43:47;5.82;;;3.35;;
78670;SDS011;68277;52.724;6.516;2023-06-19T01:46:14;7.70;;;3.63;;
78670;SDS011;68277;52.724;6.516;2023-06-19T01:48:40;6.63;;;3.58;;
78670;SDS011;68277;52.724;6.516;2023-06-19T01:51:07;4.93;;;3.25;;
78670;SDS011;68277;52.724;6.516;2023-06-19T01:53:32;5.05;;;3.45;;
78670;SDS011;68277;52.724;6.516;2023-06-19T01:55:59;5.13;;;3.22;;
78670;SDS011;68277;52.724;6.516;2023-06-19T01:58:26;7.00;;;3.00;;
78670;SDS011;68277;52.724;6.516;2023-06-19T02:00:51;6.68;;;3.85;;
78670;SDS011;68277;52.724;6.516;2023-06-19T02:03:17;6.80;;;3.40;;
78670;SDS011;68277;52.724;6.516;2023-06-19T02:05:43;4.30;;;2.35;;
78670;SDS011;68277;52.724;6.516;2023-06-19T02:08:08;5.15;;;3.58;;
78670;SDS011;68277;52.724;6.516;2023-06-19T02:10:35;5.20;;;3.35;;
78670;SDS011;68277;52.724;6.516;2023-06-19T02:13:01;5.03;;;3.22;;
78670;SDS011;68277;52.724;6.516;2023-06-19T02:15:30;9.02;;;4.43;;
78670;SDS011;68277;52.724;6.516;2023-06-19T02:17:56;6.88;;;3.75;;
78670;SDS011;68277;52.724;6.516;2023-06-19T02:20:22;7.78;;;4.32;;
78670;SDS011;68277;52.724;6.516;2023-06-19T02:22:55;6.60;;;4.88;;
78670;SDS011;68277;52.724;6.516;2023-06-19T02:25:21;6.00;;;3.42;;
78670;SDS011;68277;52.724;6.516;2023-06-19T02:27:46;6.32;;;3.50;;
78670;SDS011;68277;52.724;6.516;2023-06-19T02:30:12;5.97;;;3.47;;
78670;SDS011;68277;52.724;6.516;2023-06-19T02:32:38;7.18;;;3.65;;
78670;SDS011;68277;52.724;6.516;2023-06-19T02:35:05;7.40;;;3.95;;
78670;SDS011;68277;52.724;6.516;2023-06-19T02:37:35;6.47;;;3.63;;
78670;SDS011;68277;52.724;6.516;2023-06-19T02:40:04;5.72;;;3.55;;
78670;SDS011;68277;52.724;6.516;2023-06-19T02:42:31;6.88;;;4.28;;
78670;SDS011;68277;52.724;6.516;2023-06-19T02:44:57;5.93;;;3.85;;
78670;SDS011;68277;52.724;6.516;2023-06-19T02:47:28;5.53;;;3.25;;
78670;SDS011;68277;52.724;6.516;2023-06-19T02:49:56;5.70;;;3.80;;
78670;SDS011;68277;52.724;6.516;2023-06-19T02:52:22;5.72;;;3.53;;
78670;SDS011;68277;52.724;6.516;2023-06-19T02:54:47;5.00;;;3.55;;
78670;SDS011;68277;52.724;6.516;2023-06-19T02:57:13;6.68;;;3.65;;
78670;SDS011;68277;52.724;6.516;2023-06-19T02:59:38;5.65;;;3.40;;
78670;SDS011;68277;52.724;6.516;2023-06-19T03:02:04;5.35;;;3.15;;
78670;SDS011;68277;52.724;6.516;2023-06-19T03:04:29;7.65;;;3.70;;
78670;SDS011;68277;52.724;6.516;2023-06-19T03:06:55;5.15;;;3.70;;
78670;SDS011;68277;52.724;6.516;2023-06-19T03:09:20;5.20;;;3.53;;
78670;SDS011;68277;52.724;6.516;2023-06-19T03:11:46;6.20;;;3.78;;
78670;SDS011;68277;52.724;6.516;2023-06-19T03:14:12;6.85;;;4.03;;
78670;SDS011;68277;52.724;6.516;2023-06-19T03:16:38;7.78;;;3.70;;
78670;SDS011;68277;52.724;6.516;2023-06-19T03:19:04;5.03;;;3.33;;
78670;SDS011;68277;52.724;6.516;2023-06-19T03:21:30;5.90;;;3.28;;
78670;SDS011;68277;52.724;6.516;2023-06-19T03:23:55;6.13;;;3.25;;
78670;SDS011;68277;52.724;6.516;2023-06-19T03:26:23;6.00;;;3.85;;
78670;SDS011;68277;52.724;6.516;2023-06-19T03:28:49;7.18;;;3.63;;
78670;SDS011;68277;52.724;6.516;2023-06-19T03:31:15;5.78;;;3.38;;
78670;SDS011;68277;52.724;6.516;2023-06-19T03:33:41;5.85;;;3.20;;
78670;SDS011;68277;52.724;6.516;2023-06-19T03:36:08;4.72;;;3.00;;
78670;SDS011;68277;52.724;6.516;2023-06-19T03:38:47;5.28;;;3.47;;
78670;SDS011;68277;52.724;6.516;2023-06-19T03:41:14;5.00;;;3.10;;
78670;SDS011;68277;52.724;6.516;2023-06-19T03:43:40;8.23;;;3.15;;
78670;SDS011;68277;52.724;6.516;2023-06-19T03:46:06;5.35;;;3.08;;
78670;SDS011;68277;52.724;6.516;2023-06-19T03:48:32;4.43;;;2.50;;
78670;SDS011;68277;52.724;6.516;2023-06-19T03:50:58;5.93;;;2.78;;
78670;SDS011;68277;52.724;6.516;2023-06-19T03:53:24;5.40;;;2.67;;
78670;SDS011;68277;52.724;6.516;2023-06-19T03:55:49;4.65;;;2.50;;
78670;SDS011;68277;52.724;6.516;2023-06-19T03:58:15;3.97;;;2.40;;
78670;SDS011;68277;52.724;6.516;2023-06-19T04:00:41;5.30;;;1.88;;
78670;SDS011;68277;52.724;6.516;2023-06-19T04:03:06;4.50;;;1.88;;
78670;SDS011;68277;52.724;6.516;2023-06-19T04:05:34;4.60;;;2.38;;
78670;SDS011;68277;52.724;6.516;2023-06-19T04:08:00;3.80;;;2.15;;
78670;SDS011;68277;52.724;6.516;2023-06-19T04:10:25;3.13;;;1.80;;
78670;SDS011;68277;52.724;6.516;2023-06-19T04:12:51;3.28;;;1.80;;
78670;SDS011;68277;52.724;6.516;2023-06-19T04:15:20;3.40;;;1.92;;
78670;SDS011;68277;52.724;6.516;2023-06-19T04:17:47;3.85;;;1.90;;
78670;SDS011;68277;52.724;6.516;2023-06-19T04:20:12;4.90;;;2.47;;
78670;SDS011;68277;52.724;6.516;2023-06-19T04:22:38;5.03;;;1.95;;
78670;SDS011;68277;52.724;6.516;2023-06-19T04:25:08;3.67;;;2.30;;
78670;SDS011;68277;52.724;6.516;2023-06-19T04:27:36;4.00;;;1.67;;
78670;SDS011;68277;52.724;6.516;2023-06-19T04:30:03;3.45;;;1.65;;
78670;SDS011;68277;52.724;6.516;2023-06-19T04:32:29;3.72;;;1.80;;
78670;SDS011;68277;52.724;6.516;2023-06-19T04:34:55;4.05;;;1.98;;
78670;SDS011;68277;52.724;6.516;2023-06-19T04:37:21;3.00;;;1.50;;
78670;SDS011;68277;52.724;6.516;2023-06-19T04:39:46;6.53;;;2.33;;
78670;SDS011;68277;52.724;6.516;2023-06-19T04:42:16;3.20;;;1.73;;
78670;SDS011;68277;52.724;6.516;2023-06-19T04:44:48;3.30;;;1.70;;
78670;SDS011;68277;52.724;6.516;2023-06-19T04:47:16;4.13;;;2.10;;
78670;SDS011;68277;52.724;6.516;2023-06-19T04:49:43;3.78;;;2.40;;
78670;SDS011;68277;52.724;6.516;2023-06-19T04:52:08;3.15;;;1.85;;
78670;SDS011;68277;52.724;6.516;2023-06-19T04:54:34;3.72;;;2.00;;
78670;SDS011;68277;52.724;6.516;2023-06-19T04:57:01;3.55;;;1.75;;
78670;SDS011;68277;52.724;6.516;2023-06-19T04:59:27;4.65;;;2.53;;
78670;SDS011;68277;52.724;6.516;2023-06-19T05:01:52;3.58;;;2.28;;
78670;SDS011;68277;52.724;6.516;2023-06-19T05:04:21;3.65;;;1.70;;
78670;SDS011;68277;52.724;6.516;2023-06-19T05:06:47;4.72;;;2.25;;
78670;SDS011;68277;52.724;6.516;2023-06-19T05:09:13;3.53;;;1.73;;
78670;SDS011;68277;52.724;6.516;2023-06-19T05:11:39;2.72;;;1.73;;
78670;SDS011;68277;52.724;6.516;2023-06-19T05:14:04;3.70;;;2.05;;
78670;SDS011;68277;52.724;6.516;2023-06-19T05:16:30;7.38;;;2.33;;
78670;SDS011;68277;52.724;6.516;2023-06-19T05:18:57;3.20;;;1.80;;
78670;SDS011;68277;52.724;6.516;2023-06-19T05:21:22;3.10;;;1.92;;
78670;SDS011;68277;52.724;6.516;2023-06-19T05:23:48;3.22;;;2.17;;
78670;SDS011;68277;52.724;6.516;2023-06-19T05:26:21;2.88;;;1.90;;
78670;SDS011;68277;52.724;6.516;2023-06-19T05:28:48;5.35;;;2.60;;
78670;SDS011;68277;52.724;6.516;2023-06-19T05:33:40;4.95;;;1.95;;
78670;SDS011;68277;52.724;6.516;2023-06-19T05:36:05;3.90;;;2.40;;
78670;SDS011;68277;52.724;6.516;2023-06-19T05:38:31;3.85;;;2.25;;
78670;SDS011;68277;52.724;6.516;2023-06-19T05:40:57;3.83;;;2.33;;
78670;SDS011;68277;52.724;6.516;2023-06-19T05:43:24;3.13;;;1.95;;
78670;SDS011;68277;52.724;6.516;2023-06-19T05:45:53;4.45;;;2.30;;
78670;SDS011;68277;52.724;6.516;2023-06-19T05:48:24;2.35;;;1.50;;
78670;SDS011;68277;52.724;6.516;2023-06-19T05:53:16;5.72;;;2.15;;
78670;SDS011;68277;52.724;6.516;2023-06-19T05:55:41;3.92;;;1.88;;
78670;SDS011;68277;52.724;6.516;2023-06-19T05:58:07;4.07;;;2.30;;
78670;SDS011;68277;52.724;6.516;2023-06-19T06:00:33;2.58;;;2.00;;
78670;SDS011;68277;52.724;6.516;2023-06-19T06:02:59;6.60;;;3.05;;
78670;SDS011;68277;52.724;6.516;2023-06-19T06:05:27;6.68;;;2.55;;
78670;SDS011;68277;52.724;6.516;2023-06-19T06:07:53;5.68;;;2.72;;
78670;SDS011;68277;52.724;6.516;2023-06-19T06:12:45;3.72;;;2.47;;
78670;SDS011;68277;52.724;6.516;2023-06-19T06:15:11;6.97;;;3.00;;
78670;SDS011;68277;52.724;6.516;2023-06-19T06:17:36;6.22;;;2.63;;
78670;SDS011;68277;52.724;6.516;2023-06-19T06:20:02;4.38;;;2.53;;
78670;SDS011;68277;52.724;6.516;2023-06-19T06:22:31;4.75;;;2.72;;
78670;SDS011;68277;52.724;6.516;2023-06-19T06:24:57;4.15;;;2.63;;
78670;SDS011;68277;52.724;6.516;2023-06-19T06:27:22;4.10;;;2.38;;
78670;SDS011;68277;52.724;6.516;2023-06-19T06:29:48;6.20;;;2.78;;
78670;SDS011;68277;52.724;6.516;2023-06-19T06:32:13;5.63;;;2.60;;
78670;SDS011;68277;52.724;6.516;2023-06-19T06:34:42;6.70;;;3.03;;
78670;SDS011;68277;52.724;6.516;2023-06-19T06:37:08;4.43;;;3.03;;
78670;SDS011;68277;52.724;6.516;2023-06-19T06:39:34;5.63;;;3.60;;
78670;SDS011;68277;52.724;6.516;2023-06-19T06:41:59;8.63;;;3.70;;
78670;SDS011;68277;52.724;6.516;2023-06-19T06:44:25;6.97;;;4.03;;
78670;SDS011;68277;52.724;6.516;2023-06-19T06:46:51;6.53;;;3.55;;
78670;SDS011;68277;52.724;6.516;2023-06-19T06:49:19;5.22;;;3.00;;
78670;SDS011;68277;52.724;6.516;2023-06-19T06:51:45;5.68;;;3.00;;
78670;SDS011;68277;52.724;6.516;2023-06-19T06:54:10;8.95;;;3.55;;
78670;SDS011;68277;52.724;6.516;2023-06-19T06:56:36;4.78;;;3.03;;
78670;SDS011;68277;52.724;6.516;2023-06-19T06:59:01;6.35;;;4.28;;
78670;SDS011;68277;52.724;6.516;2023-06-19T07:01:27;7.65;;;3.35;;
78670;SDS011;68277;52.724;6.516;2023-06-19T07:03:52;7.80;;;3.60;;
78670;SDS011;68277;52.724;6.516;2023-06-19T07:06:19;5.13;;;3.08;;
78670;SDS011;68277;52.724;6.516;2023-06-19T07:08:44;8.30;;;3.92;;
78670;SDS011;68277;52.724;6.516;2023-06-19T07:11:12;5.70;;;3.47;;
78670;SDS011;68277;52.724;6.516;2023-06-19T07:13:38;6.40;;;3.28;;
78670;SDS011;68277;52.724;6.516;2023-06-19T07:16:05;6.70;;;3.30;;
78670;SDS011;68277;52.724;6.516;2023-06-19T07:18:30;4.90;;;3.30;;
78670;SDS011;68277;52.724;6.516;2023-06-19T07:20:55;5.97;;;3.20;;
78670;SDS011;68277;52.724;6.516;2023-06-19T07:23:21;6.57;;;3.80;;
78670;SDS011;68277;52.724;6.516;2023-06-19T07:25:47;5.95;;;3.35;;
78670;SDS011;68277;52.724;6.516;2023-06-19T07:28:12;6.97;;;3.15;;
78670;SDS011;68277;52.724;6.516;2023-06-19T07:30:38;5.70;;;3.85;;
78670;SDS011;68277;52.724;6.516;2023-06-19T07:33:04;6.25;;;3.53;;
78670;SDS011;68277;52.724;6.516;2023-06-19T07:35:29;4.38;;;3.30;;
78670;SDS011;68277;52.724;6.516;2023-06-19T07:37:55;5.93;;;3.55;;
78670;SDS011;68277;52.724;6.516;2023-06-19T07:40:20;5.60;;;2.97;;
78670;SDS011;68277;52.724;6.516;2023-06-19T07:42:46;6.30;;;4.15;;
78670;SDS011;68277;52.724;6.516;2023-06-19T07:45:12;5.95;;;3.97;;
78670;SDS011;68277;52.724;6.516;2023-06-19T07:47:38;7.65;;;4.95;;
78670;SDS011;68277;52.724;6.516;2023-06-19T07:50:04;6.43;;;4.47;;
78670;SDS011;68277;52.724;6.516;2023-06-19T07:52:29;6.88;;;3.80;;
78670;SDS011;68277;52.724;6.516;2023-06-19T07:54:55;7.63;;;4.78;;
78670;SDS011;68277;52.724;6.516;2023-06-19T07:57:26;6.10;;;3.97;;
78670;SDS011;68277;52.724;6.516;2023-06-19T07:59:52;6.10;;;4.03;;
78670;SDS011;68277;52.724;6.516;2023-06-19T08:02:19;7.65;;;3.42;;
78670;SDS011;68277;52.724;6.516;2023-06-19T08:04:45;6.10;;;4.85;;
78670;SDS011;68277;52.724;6.516;2023-06-19T08:07:11;9.57;;;5.55;;
78670;SDS011;68277;52.724;6.516;2023-06-19T08:09:37;7.20;;;4.95;;
78670;SDS011;68277;52.724;6.516;2023-06-19T08:12:02;7.15;;;4.32;;
78670;SDS011;68277;52.724;6.516;2023-06-19T08:14:29;9.25;;;4.32;;
78670;SDS011;68277;52.724;6.516;2023-06-19T08:16:54;5.95;;;3.88;;
78670;SDS011;68277;52.724;6.516;2023-06-19T08:19:20;5.53;;;4.00;;
78670;SDS011;68277;52.724;6.516;2023-06-19T08:21:46;7.40;;;4.47;;
78670;SDS011;68277;52.724;6.516;2023-06-19T08:24:11;6.68;;;4.15;;
78670;SDS011;68277;52.724;6.516;2023-06-19T08:26:37;6.15;;;4.00;;
78670;SDS011;68277;52.724;6.516;2023-06-19T08:29:02;7.25;;;4.57;;
78670;SDS011;68277;52.724;6.516;2023-06-19T08:31:28;5.93;;;3.90;;
78670;SDS011;68277;52.724;6.516;2023-06-19T08:33:54;6.50;;;4.88;;
78670;SDS011;68277;52.724;6.516;2023-06-19T08:36:21;7.93;;;4.40;;
78670;SDS011;68277;52.724;6.516;2023-06-19T08:38:47;8.70;;;5.40;;
78670;SDS011;68277;52.724;6.516;2023-06-19T08:41:15;11.32;;;7.05;;
78670;SDS011;68277;52.724;6.516;2023-06-19T08:43:41;7.13;;;5.20;;
78670;SDS011;68277;52.724;6.516;2023-06-19T08:48:40;7.57;;;4.75;;
78670;SDS011;68277;52.724;6.516;2023-06-19T08:51:06;5.65;;;3.90;;
78670;SDS011;68277;52.724;6.516;2023-06-19T08:53:33;5.75;;;4.53;;
78670;SDS011;68277;52.724;6.516;2023-06-19T08:56:01;7.25;;;4.65;;
78670;SDS011;68277;52.724;6.516;2023-06-19T08:58:29;6.22;;;3.35;;
78670;SDS011;68277;52.724;6.516;2023-06-19T09:00:54;5.30;;;4.28;;
78670;SDS011;68277;52.724;6.516;2023-06-19T09:03:23;5.13;;;3.70;;
78670;SDS011;68277;52.724;6.516;2023-06-19T09:05:48;5.47;;;4.38;;
78670;SDS011;68277;52.724;6.516;2023-06-19T09:08:15;10.50;;;3.65;;
78670;SDS011;68277;52.724;6.516;2023-06-19T09:10:42;8.85;;;3.88;;
78670;SDS011;68277;52.724;6.516;2023-06-19T09:13:07;5.85;;;3.88;;
78670;SDS011;68277;52.724;6.516;2023-06-19T09:15:37;5.00;;;3.58;;
78670;SDS011;68277;52.724;6.516;2023-06-19T09:18:08;6.47;;;3.83;;
78670;SDS011;68277;52.724;6.516;2023-06-19T09:20:41;6.25;;;4.20;;
78670;SDS011;68277;52.724;6.516;2023-06-19T09:23:12;6.53;;;4.10;;
78670;SDS011;68277;52.724;6.516;2023-06-19T09:25:49;5.97;;;3.90;;
78670;SDS011;68277;52.724;6.516;2023-06-19T09:28:20;7.75;;;4.53;;
78670;SDS011;68277;52.724;6.516;2023-06-19T09:30:55;6.13;;;4.10;;
78670;SDS011;68277;52.724;6.516;2023-06-19T09:33:22;8.35;;;4.32;;
78670;SDS011;68277;52.724;6.516;2023-06-19T09:35:49;7.07;;;4.32;;
78670;SDS011;68277;52.724;6.516;2023-06-19T09:38:16;6.88;;;4.18;;
78670;SDS011;68277;52.724;6.516;2023-06-19T09:40:47;7.57;;;3.85;;
78670;SDS011;68277;52.724;6.516;2023-06-19T09:43:13;5.60;;;3.63;;
78670;SDS011;68277;52.724;6.516;2023-06-19T09:45:46;5.80;;;3.85;;
78670;SDS011;68277;52.724;6.516;2023-06-19T09:48:15;5.57;;;3.40;;
78670;SDS011;68277;52.724;6.516;2023-06-19T09:50:50;7.55;;;4.07;;
78670;SDS011;68277;52.724;6.516;2023-06-19T09:53:19;4.95;;;2.95;;
78670;SDS011;68277;52.724;6.516;2023-06-19T09:55:47;4.35;;;2.97;;
78670;SDS011;68277;52.724;6.516;2023-06-19T09:58:16;4.90;;;3.35;;
78670;SDS011;68277;52.724;6.516;2023-06-19T10:00:44;6.93;;;3.60;;
78670;SDS011;68277;52.724;6.516;2023-06-19T10:03:13;7.15;;;3.88;;
78670;SDS011;68277;52.724;6.516;2023-06-19T10:05:39;7.88;;;3.80;;
78670;SDS011;68277;52.724;6.516;2023-06-19T10:08:05;9.50;;;4.75;;
78670;SDS011;68277;52.724;6.516;2023-06-19T10:12:59;7.55;;;4.15;;
78670;SDS011;68277;52.724;6.516;2023-06-19T10:15:26;6.40;;;4.18;;
78670;SDS011;68277;52.724;6.516;2023-06-19T10:18:00;8.32;;;3.75;;
78670;SDS011;68277;52.724;6.516;2023-06-19T10:20:31;11.63;;;4.75;;
78670;SDS011;68277;52.724;6.516;2023-06-19T10:25:35;7.20;;;3.92;;
78670;SDS011;68277;52.724;6.516;2023-06-19T10:28:15;7.43;;;4.07;;
78670;SDS011;68277;52.724;6.516;2023-06-19T10:30:56;7.40;;;3.50;;
78670;SDS011;68277;52.724;6.516;2023-06-19T10:33:24;8.18;;;3.65;;
78670;SDS011;68277;52.724;6.516;2023-06-19T10:35:51;5.72;;;3.42;;
78670;SDS011;68277;52.724;6.516;2023-06-19T10:38:17;6.60;;;3.22;;
78670;SDS011;68277;52.724;6.516;2023-06-19T10:40:43;7.35;;;3.90;;
78670;SDS011;68277;52.724;6.516;2023-06-19T10:43:11;6.65;;;4.03;;
78670;SDS011;68277;52.724;6.516;2023-06-19T10:45:37;6.20;;;3.13;;
78670;SDS011;68277;52.724;6.516;2023-06-19T10:48:03;6.13;;;3.38;;
78670;SDS011;68277;52.724;6.516;2023-06-19T10:52:55;5.68;;;3.17;;
78670;SDS011;68277;52.724;6.516;2023-06-19T10:55:21;7.05;;;3.60;;
78670;SDS011;68277;52.724;6.516;2023-06-19T10:57:47;5.15;;;3.10;;
78670;SDS011;68277;52.724;6.516;2023-06-19T11:00:27;5.25;;;3.13;;
78670;SDS011;68277;52.724;6.516;2023-06-19T11:02:56;5.60;;;3.38;;
78670;SDS011;68277;52.724;6.516;2023-06-19T11:05:24;7.43;;;4.20;;
78670;SDS011;68277;52.724;6.516;2023-06-19T11:07:52;7.22;;;3.30;;
78670;SDS011;68277;52.724;6.516;2023-06-19T11:10:25;9.40;;;3.80;;
78670;SDS011;68277;52.724;6.516;2023-06-19T11:12:56;6.20;;;3.63;;
78670;SDS011;68277;52.724;6.516;2023-06-19T11:15:29;9.38;;;4.40;;
78670;SDS011;68277;52.724;6.516;2023-06-19T11:17:56;8.07;;;3.63;;
78670;SDS011;68277;52.724;6.516;2023-06-19T11:20:22;8.43;;;4.30;;
78670;SDS011;68277;52.724;6.516;2023-06-19T11:22:53;5.38;;;4.00;;
78670;SDS011;68277;52.724;6.516;2023-06-19T11:25:22;8.90;;;4.57;;
78670;SDS011;68277;52.724;6.516;2023-06-19T11:27:48;6.03;;;3.95;;
78670;SDS011;68277;52.724;6.516;2023-06-19T11:30:17;6.25;;;3.35;;
78670;SDS011;68277;52.724;6.516;2023-06-19T11:32:45;7.93;;;3.88;;
78670;SDS011;68277;52.724;6.516;2023-06-19T11:35:15;4.68;;;3.20;;
78670;SDS011;68277;52.724;6.516;2023-06-19T11:37:41;9.43;;;3.50;;
78670;SDS011;68277;52.724;6.516;2023-06-19T11:40:09;6.88;;;4.80;;
78670;SDS011;68277;52.724;6.516;2023-06-19T11:42:47;11.80;;;4.43;;
78670;SDS011;68277;52.724;6.516;2023-06-19T11:45:14;5.95;;;2.80;;
78670;SDS011;68277;52.724;6.516;2023-06-19T11:47:40;10.15;;;3.47;;
78670;SDS011;68277;52.724;6.516;2023-06-19T11:50:08;6.93;;;4.75;;
78670;SDS011;68277;52.724;6.516;2023-06-19T11:52:34;9.85;;;6.38;;
78670;SDS011;68277;52.724;6.516;2023-06-19T11:55:00;7.97;;;4.35;;
78670;SDS011;68277;52.724;6.516;2023-06-19T11:57:26;6.30;;;3.72;;
78670;SDS011;68277;52.724;6.516;2023-06-19T11:59:52;7.78;;;4.45;;
78670;SDS011;68277;52.724;6.516;2023-06-19T12:02:17;10.10;;;4.30;;
78670;SDS011;68277;52.724;6.516;2023-06-19T12:04:43;7.38;;;4.53;;
78670;SDS011;68277;52.724;6.516;2023-06-19T12:07:08;9.55;;;4.05;;
78670;SDS011;68277;52.724;6.516;2023-06-19T12:09:34;6.65;;;4.95;;
78670;SDS011;68277;52.724;6.516;2023-06-19T12:11:59;6.82;;;4.18;;
78670;SDS011;68277;52.724;6.516;2023-06-19T12:14:25;9.63;;;4.55;;
78670;SDS011;68277;52.724;6.516;2023-06-19T12:16:51;12.25;;;5.28;;
78670;SDS011;68277;52.724;6.516;2023-06-19T12:19:17;8.35;;;4.53;;
78670;SDS011;68277;52.724;6.516;2023-06-19T12:21:42;5.97;;;3.60;;
78670;SDS011;68277;52.724;6.516;2023-06-19T12:24:09;10.82;;;4.93;;
78670;SDS011;68277;52.724;6.516;2023-06-19T12:29:05;7.43;;;4.32;;
78670;SDS011;68277;52.724;6.516;2023-06-19T12:31:32;9.82;;;5.65;;
78670;SDS011;68277;52.724;6.516;2023-06-19T12:33:58;9.93;;;4.65;;
78670;SDS011;68277;52.724;6.516;2023-06-19T12:36:26;9.25;;;4.43;;
78670;SDS011;68277;52.724;6.516;2023-06-19T12:38:52;10.90;;;5.20;;
78670;SDS011;68277;52.724;6.516;2023-06-19T12:41:21;9.52;;;6.15;;
78670;SDS011;68277;52.724;6.516;2023-06-19T12:43:46;9.95;;;4.85;;
78670;SDS011;68277;52.724;6.516;2023-06-19T12:46:12;8.57;;;4.93;;
78670;SDS011;68277;52.724;6.516;2023-06-19T12:48:37;8.25;;;4.93;;
78670;SDS011;68277;52.724;6.516;2023-06-19T12:51:03;5.53;;;3.80;;
78670;SDS011;68277;52.724;6.516;2023-06-19T12:53:28;13.77;;;5.95;;
78670;SDS011;68277;52.724;6.516;2023-06-19T12:55:57;10.30;;;5.80;;
78670;SDS011;68277;52.724;6.516;2023-06-19T12:58:24;8.63;;;4.90;;
78670;SDS011;68277;52.724;6.516;2023-06-19T13:00:49;8.90;;;4.72;;
78670;SDS011;68277;52.724;6.516;2023-06-19T13:03:15;5.35;;;3.75;;
78670;SDS011;68277;52.724;6.516;2023-06-19T13:05:42;7.00;;;4.55;;
78670;SDS011;68277;52.724;6.516;2023-06-19T13:08:08;5.60;;;4.32;;
78670;SDS011;68277;52.724;6.516;2023-06-19T13:10:33;8.10;;;5.30;;
78670;SDS011;68277;52.724;6.516;2023-06-19T13:12:58;6.55;;;4.85;;
78670;SDS011;68277;52.724;6.516;2023-06-19T13:15:24;5.85;;;4.25;;
78670;SDS011;68277;52.724;6.516;2023-06-19T13:17:50;8.05;;;4.18;;
78670;SDS011;68277;52.724;6.516;2023-06-19T13:20:15;6.90;;;4.07;;
78670;SDS011;68277;52.724;6.516;2023-06-19T13:22:41;10.07;;;5.20;;
78670;SDS011;68277;52.724;6.516;2023-06-19T13:25:07;11.30;;;4.55;;
78670;SDS011;68277;52.724;6.516;2023-06-19T13:27:33;6.13;;;4.32;;
78670;SDS011;68277;52.724;6.516;2023-06-19T13:29:59;9.65;;;5.35;;
78670;SDS011;68277;52.724;6.516;2023-06-19T13:32:25;6.90;;;4.60;;
78670;SDS011;68277;52.724;6.516;2023-06-19T13:34:51;6.13;;;3.63;;
78670;SDS011;68277;52.724;6.516;2023-06-19T13:37:18;6.55;;;3.25;;
78670;SDS011;68277;52.724;6.516;2023-06-19T13:39:44;6.65;;;4.07;;
78670;SDS011;68277;52.724;6.516;2023-06-19T13:44:36;7.40;;;4.57;;
78670;SDS011;68277;52.724;6.516;2023-06-19T13:49:28;6.60;;;4.15;;
78670;SDS011;68277;52.724;6.516;2023-06-19T13:51:57;8.95;;;4.80;;
78670;SDS011;68277;52.724;6.516;2023-06-19T13:54:22;6.18;;;4.35;;
78670;SDS011;68277;52.724;6.516;2023-06-19T13:56:48;5.55;;;3.63;;
78670;SDS011;68277;52.724;6.516;2023-06-19T13:59:16;7.55;;;4.15;;
78670;SDS011;68277;52.724;6.516;2023-06-19T14:01:41;5.00;;;3.15;;
78670;SDS011;68277;52.724;6.516;2023-06-19T14:04:07;9.38;;;4.80;;
78670;SDS011;68277;52.724;6.516;2023-06-19T14:06:36;8.13;;;4.13;;
78670;SDS011;68277;52.724;6.516;2023-06-19T14:09:03;6.13;;;3.28;;
78670;SDS011;68277;52.724;6.516;2023-06-19T14:13:54;7.40;;;3.22;;
78670;SDS011;68277;52.724;6.516;2023-06-19T14:16:20;4.60;;;3.10;;
78670;SDS011;68277;52.724;6.516;2023-06-19T14:18:46;6.82;;;4.07;;
78670;SDS011;68277;52.724;6.516;2023-06-19T14:21:11;5.10;;;3.00;;
78670;SDS011;68277;52.724;6.516;2023-06-19T14:23:37;5.18;;;3.08;;
78670;SDS011;68277;52.724;6.516;2023-06-19T14:26:08;5.43;;;3.03;;
78670;SDS011;68277;52.724;6.516;2023-06-19T14:28:37;5.78;;;2.88;;
78670;SDS011;68277;52.724;6.516;2023-06-19T14:31:06;3.70;;;2.55;;
78670;SDS011;68277;52.724;6.516;2023-06-19T14:33:31;4.78;;;2.67;;
78670;SDS011;68277;52.724;6.516;2023-06-19T14:35:58;3.95;;;2.42;;
78670;SDS011;68277;52.724;6.516;2023-06-19T14:38:24;5.53;;;3.13;;
78670;SDS011;68277;52.724;6.516;2023-06-19T14:40:53;5.78;;;2.85;;
78670;SDS011;68277;52.724;6.516;2023-06-19T14:43:18;4.03;;;2.40;;
78670;SDS011;68277;52.724;6.516;2023-06-19T14:45:44;5.30;;;2.58;;
78670;SDS011;68277;52.724;6.516;2023-06-19T14:48:09;4.15;;;2.00;;
78670;SDS011;68277;52.724;6.516;2023-06-19T14:50:35;4.55;;;2.40;;
78670;SDS011;68277;52.724;6.516;2023-06-19T14:53:00;4.93;;;2.25;;
78670;SDS011;68277;52.724;6.516;2023-06-19T14:55:26;5.05;;;2.85;;
78670;SDS011;68277;52.724;6.516;2023-06-19T14:57:51;3.47;;;1.75;;
78670;SDS011;68277;52.724;6.516;2023-06-19T15:00:17;4.55;;;2.63;;
78670;SDS011;68277;52.724;6.516;2023-06-19T15:02:42;5.03;;;2.22;;
78670;SDS011;68277;52.724;6.516;2023-06-19T15:05:08;4.95;;;2.38;;
78670;SDS011;68277;52.724;6.516;2023-06-19T15:07:34;3.75;;;2.03;;
78670;SDS011;68277;52.724;6.516;2023-06-19T15:09:59;3.55;;;2.10;;
78670;SDS011;68277;52.724;6.516;2023-06-19T15:12:25;5.32;;;2.25;;
78670;SDS011;68277;52.724;6.516;2023-06-19T15:14:50;6.43;;;2.42;;